首页
METAR-TAF:

METAR-TAF

机场 :

Batajnica, 塞尔维亚

纬度: 44-56-07N, 经度: 020-15-27E, 海拔: 86米

当前天气观测

该预报发布于29分钟前的20:30 UTC
风速2节,风向西转西南
温度 22°C
湿度 83%
气压 1021 hPa
能见度10公里或以上
1500米以下无云,无积雨云

METAR: LYBT 222030Z 25002KT CAVOK 22/19 Q1021 NOSIG

时间: 22:59 (20:59 UTC)

预报

该预报发布于3小时和59分钟前的17:00 UTC
预报有效从22日的 18点(UTC)到 23日的 18点(UTC)
风速5节,风向东北
能见度10公里或以上
1500米以下无云,无积雨云

TAF: LYBT 221700Z 2218/2318 05005KT CAVOK TX33/2314Z TN18/2304Z

超过4000个机场的气象观测和天气预报(METAR&TAF报告)。

可查询的气象台以黄色和红色小点在地图上表示。

将鼠标移到小点上方,可查看气象台名称。

然后点击查看天气观测和预报。

如需切换地图:点击带黑十字的绿色按钮放大地图;点击带横线的绿色按钮缩小地图;或者点击绿色箭头查看邻近地区的地图。


METAR-TAF: